sensor_id;sensor_type;location;lat;lon;timestamp;P1;durP1;ratioP1;P2;durP2;ratioP2
53293;SDS011;39181;53.440;5.644;2023-03-03T00:00:38;2.35;;;0.60;;
53293;SDS011;39181;53.440;5.644;2023-03-03T00:03:05;3.83;;;0.50;;
53293;SDS011;39181;53.440;5.644;2023-03-03T00:05:33;5.25;;;0.43;;
53293;SDS011;39181;53.440;5.644;2023-03-03T00:07:59;8.10;;;0.50;;
53293;SDS011;39181;53.440;5.644;2023-03-03T00:10:25;1.42;;;0.30;;
53293;SDS011;39181;53.440;5.644;2023-03-03T00:12:51;3.47;;;0.60;;
53293;SDS011;39181;53.440;5.644;2023-03-03T00:15:21;5.43;;;0.40;;
53293;SDS011;39181;53.440;5.644;2023-03-03T00:17:48;3.03;;;0.40;;
53293;SDS011;39181;53.440;5.644;2023-03-03T00:20:26;4.30;;;0.50;;
53293;SDS011;39181;53.440;5.644;2023-03-03T00:23:16;8.93;;;0.65;;
53293;SDS011;39181;53.440;5.644;2023-03-03T00:25:49;8.10;;;0.63;;
53293;SDS011;39181;53.440;5.644;2023-03-03T00:30:47;4.57;;;0.40;;
53293;SDS011;39181;53.440;5.644;2023-03-03T00:33:30;2.30;;;0.50;;
53293;SDS011;39181;53.440;5.644;2023-03-03T00:36:40;2.22;;;0.50;;
53293;SDS011;39181;53.440;5.644;2023-03-03T00:38:52;5.10;;;0.50;;
53293;SDS011;39181;53.440;5.644;2023-03-03T00:41:20;4.35;;;0.60;;
53293;SDS011;39181;53.440;5.644;2023-03-03T00:43:48;2.83;;;1.40;;
53293;SDS011;39181;53.440;5.644;2023-03-03T00:46:16;2.63;;;0.50;;
53293;SDS011;39181;53.440;5.644;2023-03-03T00:48:44;5.93;;;0.50;;
53293;SDS011;39181;53.440;5.644;2023-03-03T00:51:23;2.78;;;0.65;;
53293;SDS011;39181;53.440;5.644;2023-03-03T00:53:52;3.42;;;0.47;;
53293;SDS011;39181;53.440;5.644;2023-03-03T00:56:18;5.45;;;0.50;;
53293;SDS011;39181;53.440;5.644;2023-03-03T00:58:43;2.38;;;0.57;;
53293;SDS011;39181;53.440;5.644;2023-03-03T01:01:11;5.78;;;0.88;;
53293;SDS011;39181;53.440;5.644;2023-03-03T01:03:37;3.20;;;0.52;;
53293;SDS011;39181;53.440;5.644;2023-03-03T01:06:03;4.75;;;0.45;;
53293;SDS011;39181;53.440;5.644;2023-03-03T01:08:28;3.13;;;0.30;;
53293;SDS011;39181;53.440;5.644;2023-03-03T01:10:55;2.20;;;0.30;;
53293;SDS011;39181;53.440;5.644;2023-03-03T01:13:25;4.57;;;0.35;;
53293;SDS011;39181;53.440;5.644;2023-03-03T01:15:52;3.03;;;0.38;;
53293;SDS011;39181;53.440;5.644;2023-03-03T01:18:18;4.15;;;0.70;;
53293;SDS011;39181;53.440;5.644;2023-03-03T01:20:43;3.72;;;0.30;;
53293;SDS011;39181;53.440;5.644;2023-03-03T01:23:09;3.15;;;0.40;;
53293;SDS011;39181;53.440;5.644;2023-03-03T01:25:35;4.20;;;0.50;;
53293;SDS011;39181;53.440;5.644;2023-03-03T01:28:01;2.75;;;0.43;;
53293;SDS011;39181;53.440;5.644;2023-03-03T01:30:26;6.35;;;0.50;;
53293;SDS011;39181;53.440;5.644;2023-03-03T01:32:52;3.35;;;0.40;;
53293;SDS011;39181;53.440;5.644;2023-03-03T01:35:18;3.72;;;0.40;;
53293;SDS011;39181;53.440;5.644;2023-03-03T01:37:44;5.50;;;0.52;;
53293;SDS011;39181;53.440;5.644;2023-03-03T01:40:17;2.78;;;0.45;;
53293;SDS011;39181;53.440;5.644;2023-03-03T01:42:45;1.10;;;0.22;;
53293;SDS011;39181;53.440;5.644;2023-03-03T01:47:58;4.65;;;0.50;;
53293;SDS011;39181;53.440;5.644;2023-03-03T01:50:31;6.10;;;0.95;;
53293;SDS011;39181;53.440;5.644;2023-03-03T01:53:01;4.30;;;0.60;;
53293;SDS011;39181;53.440;5.644;2023-03-03T01:55:33;2.47;;;0.28;;
53293;SDS011;39181;53.440;5.644;2023-03-03T01:58:03;1.52;;;0.30;;
53293;SDS011;39181;53.440;5.644;2023-03-03T02:00:33;2.17;;;0.50;;
53293;SDS011;39181;53.440;5.644;2023-03-03T02:03:01;5.63;;;0.30;;
53293;SDS011;39181;53.440;5.644;2023-03-03T02:05:27;4.88;;;0.40;;
53293;SDS011;39181;53.440;5.644;2023-03-03T02:07:53;5.05;;;0.63;;
53293;SDS011;39181;53.440;5.644;2023-03-03T02:10:19;4.38;;;0.50;;
53293;SDS011;39181;53.440;5.644;2023-03-03T02:12:54;4.72;;;0.63;;
53293;SDS011;39181;53.440;5.644;2023-03-03T02:17:49;4.13;;;0.50;;
53293;SDS011;39181;53.440;5.644;2023-03-03T02:25:45;4.60;;;0.60;;
53293;SDS011;39181;53.440;5.644;2023-03-03T02:28:24;4.50;;;0.77;;
53293;SDS011;39181;53.440;5.644;2023-03-03T02:30:55;2.85;;;0.50;;
53293;SDS011;39181;53.440;5.644;2023-03-03T02:33:22;2.53;;;0.60;;
53293;SDS011;39181;53.440;5.644;2023-03-03T02:35:48;4.97;;;0.90;;
53293;SDS011;39181;53.440;5.644;2023-03-03T02:38:23;6.93;;;0.75;;
53293;SDS011;39181;53.440;5.644;2023-03-03T02:41:03;6.28;;;0.73;;
53293;SDS011;39181;53.440;5.644;2023-03-03T02:43:53;2.47;;;0.30;;
53293;SDS011;39181;53.440;5.644;2023-03-03T02:46:26;4.07;;;0.82;;
53293;SDS011;39181;53.440;5.644;2023-03-03T02:48:56;2.05;;;0.35;;
53293;SDS011;39181;53.440;5.644;2023-03-03T02:51:21;4.90;;;0.60;;
53293;SDS011;39181;53.440;5.644;2023-03-03T02:53:47;6.57;;;0.60;;
53293;SDS011;39181;53.440;5.644;2023-03-03T02:56:13;5.38;;;0.85;;
53293;SDS011;39181;53.440;5.644;2023-03-03T02:58:38;8.75;;;0.50;;
53293;SDS011;39181;53.440;5.644;2023-03-03T03:01:04;4.40;;;0.60;;
53293;SDS011;39181;53.440;5.644;2023-03-03T03:03:29;2.17;;;0.25;;
53293;SDS011;39181;53.440;5.644;2023-03-03T03:05:55;6.80;;;0.88;;
53293;SDS011;39181;53.440;5.644;2023-03-03T03:08:21;6.05;;;0.50;;
53293;SDS011;39181;53.440;5.644;2023-03-03T03:10:46;4.57;;;0.60;;
53293;SDS011;39181;53.440;5.644;2023-03-03T03:13:13;6.68;;;0.95;;
53293;SDS011;39181;53.440;5.644;2023-03-03T03:15:38;3.40;;;0.30;;
53293;SDS011;39181;53.440;5.644;2023-03-03T03:18:04;3.17;;;0.40;;
53293;SDS011;39181;53.440;5.644;2023-03-03T03:20:31;4.65;;;0.40;;
53293;SDS011;39181;53.440;5.644;2023-03-03T03:22:59;7.80;;;0.68;;
53293;SDS011;39181;53.440;5.644;2023-03-03T03:25:25;6.22;;;0.60;;
53293;SDS011;39181;53.440;5.644;2023-03-03T03:27:50;10.35;;;0.85;;
53293;SDS011;39181;53.440;5.644;2023-03-03T03:30:16;6.45;;;0.60;;
53293;SDS011;39181;53.440;5.644;2023-03-03T03:32:44;12.75;;;2.05;;
53293;SDS011;39181;53.440;5.644;2023-03-03T03:35:10;1.85;;;0.45;;
53293;SDS011;39181;53.440;5.644;2023-03-03T03:37:36;1.90;;;0.35;;
53293;SDS011;39181;53.440;5.644;2023-03-03T03:40:01;5.38;;;0.50;;
53293;SDS011;39181;53.440;5.644;2023-03-03T03:42:27;8.25;;;0.50;;
53293;SDS011;39181;53.440;5.644;2023-03-03T03:44:52;4.28;;;0.77;;
53293;SDS011;39181;53.440;5.644;2023-03-03T03:47:18;2.20;;;0.50;;
53293;SDS011;39181;53.440;5.644;2023-03-03T03:49:44;5.05;;;0.60;;
53293;SDS011;39181;53.440;5.644;2023-03-03T03:52:09;3.65;;;0.57;;
53293;SDS011;39181;53.440;5.644;2023-03-03T03:54:35;5.78;;;0.43;;
53293;SDS011;39181;53.440;5.644;2023-03-03T03:57:01;12.32;;;2.15;;
53293;SDS011;39181;53.440;5.644;2023-03-03T03:59:26;3.88;;;0.45;;
53293;SDS011;39181;53.440;5.644;2023-03-03T04:01:52;5.13;;;0.90;;
53293;SDS011;39181;53.440;5.644;2023-03-03T04:04:17;4.47;;;0.95;;
53293;SDS011;39181;53.440;5.644;2023-03-03T04:06:43;5.32;;;0.60;;
53293;SDS011;39181;53.440;5.644;2023-03-03T04:09:09;4.65;;;0.75;;
53293;SDS011;39181;53.440;5.644;2023-03-03T04:11:35;12.45;;;1.17;;
53293;SDS011;39181;53.440;5.644;2023-03-03T04:14:00;6.25;;;0.80;;
53293;SDS011;39181;53.440;5.644;2023-03-03T04:16:26;5.65;;;0.82;;
53293;SDS011;39181;53.440;5.644;2023-03-03T04:18:51;4.00;;;0.50;;
53293;SDS011;39181;53.440;5.644;2023-03-03T04:21:17;7.40;;;0.68;;
53293;SDS011;39181;53.440;5.644;2023-03-03T04:23:42;2.17;;;0.40;;
53293;SDS011;39181;53.440;5.644;2023-03-03T04:26:08;17.25;;;1.08;;
53293;SDS011;39181;53.440;5.644;2023-03-03T04:28:34;3.63;;;0.40;;
53293;SDS011;39181;53.440;5.644;2023-03-03T04:31:00;4.28;;;0.50;;
53293;SDS011;39181;53.440;5.644;2023-03-03T04:33:25;5.53;;;1.05;;
53293;SDS011;39181;53.440;5.644;2023-03-03T04:35:51;6.18;;;0.40;;
53293;SDS011;39181;53.440;5.644;2023-03-03T04:38:17;11.52;;;0.75;;
53293;SDS011;39181;53.440;5.644;2023-03-03T04:40:42;4.38;;;0.55;;
53293;SDS011;39181;53.440;5.644;2023-03-03T04:43:09;5.43;;;0.60;;
53293;SDS011;39181;53.440;5.644;2023-03-03T04:45:35;3.58;;;0.68;;
53293;SDS011;39181;53.440;5.644;2023-03-03T04:48:01;5.93;;;0.68;;
53293;SDS011;39181;53.440;5.644;2023-03-03T04:50:26;7.88;;;0.60;;
53293;SDS011;39181;53.440;5.644;2023-03-03T04:52:52;8.00;;;0.82;;
53293;SDS011;39181;53.440;5.644;2023-03-03T04:55:17;7.13;;;0.60;;
53293;SDS011;39181;53.440;5.644;2023-03-03T04:57:43;10.90;;;0.70;;
53293;SDS011;39181;53.440;5.644;2023-03-03T05:00:10;6.47;;;0.65;;
53293;SDS011;39181;53.440;5.644;2023-03-03T05:02:40;7.13;;;0.70;;
53293;SDS011;39181;53.440;5.644;2023-03-03T05:05:06;4.22;;;0.70;;
53293;SDS011;39181;53.440;5.644;2023-03-03T05:07:33;4.20;;;0.57;;
53293;SDS011;39181;53.440;5.644;2023-03-03T05:09:59;7.82;;;0.60;;
53293;SDS011;39181;53.440;5.644;2023-03-03T05:12:25;6.88;;;0.52;;
53293;SDS011;39181;53.440;5.644;2023-03-03T05:14:51;5.65;;;0.98;;
53293;SDS011;39181;53.440;5.644;2023-03-03T05:17:16;5.03;;;0.60;;
53293;SDS011;39181;53.440;5.644;2023-03-03T05:19:42;3.78;;;0.68;;
53293;SDS011;39181;53.440;5.644;2023-03-03T05:22:08;2.17;;;0.73;;
53293;SDS011;39181;53.440;5.644;2023-03-03T05:24:34;6.95;;;0.80;;
53293;SDS011;39181;53.440;5.644;2023-03-03T05:27:00;5.65;;;0.70;;
53293;SDS011;39181;53.440;5.644;2023-03-03T05:29:26;3.42;;;1.08;;
53293;SDS011;39181;53.440;5.644;2023-03-03T05:31:52;4.18;;;0.60;;
53293;SDS011;39181;53.440;5.644;2023-03-03T05:34:18;3.63;;;0.73;;
53293;SDS011;39181;53.440;5.644;2023-03-03T05:36:43;7.72;;;1.00;;
53293;SDS011;39181;53.440;5.644;2023-03-03T05:39:09;3.05;;;0.63;;
53293;SDS011;39181;53.440;5.644;2023-03-03T05:41:34;4.60;;;0.60;;
53293;SDS011;39181;53.440;5.644;2023-03-03T05:44:01;4.18;;;0.65;;
53293;SDS011;39181;53.440;5.644;2023-03-03T05:46:27;8.98;;;0.88;;
53293;SDS011;39181;53.440;5.644;2023-03-03T05:48:52;5.85;;;0.98;;
53293;SDS011;39181;53.440;5.644;2023-03-03T05:51:18;5.25;;;0.63;;
53293;SDS011;39181;53.440;5.644;2023-03-03T05:53:44;3.78;;;0.88;;
53293;SDS011;39181;53.440;5.644;2023-03-03T05:56:09;4.25;;;1.05;;
53293;SDS011;39181;53.440;5.644;2023-03-03T05:58:35;11.07;;;1.00;;
53293;SDS011;39181;53.440;5.644;2023-03-03T06:01:00;5.88;;;0.80;;
53293;SDS011;39181;53.440;5.644;2023-03-03T06:03:26;2.33;;;0.50;;
53293;SDS011;39181;53.440;5.644;2023-03-03T06:05:52;3.22;;;0.65;;
53293;SDS011;39181;53.440;5.644;2023-03-03T06:08:17;3.45;;;0.85;;
53293;SDS011;39181;53.440;5.644;2023-03-03T06:10:43;4.43;;;0.80;;
53293;SDS011;39181;53.440;5.644;2023-03-03T06:13:09;6.30;;;0.52;;
53293;SDS011;39181;53.440;5.644;2023-03-03T06:15:34;15.05;;;2.30;;
53293;SDS011;39181;53.440;5.644;2023-03-03T06:18:00;9.60;;;0.82;;
53293;SDS011;39181;53.440;5.644;2023-03-03T06:20:26;8.13;;;0.85;;
53293;SDS011;39181;53.440;5.644;2023-03-03T06:22:51;8.30;;;0.82;;
53293;SDS011;39181;53.440;5.644;2023-03-03T06:25:17;5.50;;;0.80;;
53293;SDS011;39181;53.440;5.644;2023-03-03T06:27:42;6.70;;;0.65;;
53293;SDS011;39181;53.440;5.644;2023-03-03T06:30:08;5.07;;;0.80;;
53293;SDS011;39181;53.440;5.644;2023-03-03T06:32:34;5.10;;;0.50;;
53293;SDS011;39181;53.440;5.644;2023-03-03T06:35:00;9.30;;;1.02;;
53293;SDS011;39181;53.440;5.644;2023-03-03T06:37:25;2.95;;;0.47;;
53293;SDS011;39181;53.440;5.644;2023-03-03T06:39:51;3.90;;;0.73;;
53293;SDS011;39181;53.440;5.644;2023-03-03T06:42:17;1.50;;;0.40;;
53293;SDS011;39181;53.440;5.644;2023-03-03T06:44:43;3.13;;;0.85;;
53293;SDS011;39181;53.440;5.644;2023-03-03T06:47:09;2.70;;;0.50;;
53293;SDS011;39181;53.440;5.644;2023-03-03T06:49:34;2.80;;;0.60;;
53293;SDS011;39181;53.440;5.644;2023-03-03T06:52:00;4.57;;;0.70;;
53293;SDS011;39181;53.440;5.644;2023-03-03T06:54:35;5.95;;;0.65;;
53293;SDS011;39181;53.440;5.644;2023-03-03T06:57:02;2.15;;;0.60;;
53293;SDS011;39181;53.440;5.644;2023-03-03T07:02:49;0.75;;;0.35;;
53293;SDS011;39181;53.440;5.644;2023-03-03T07:05:21;2.97;;;0.50;;
53293;SDS011;39181;53.440;5.644;2023-03-03T07:07:50;3.92;;;0.40;;
53293;SDS011;39181;53.440;5.644;2023-03-03T07:10:26;2.22;;;0.73;;
53293;SDS011;39181;53.440;5.644;2023-03-03T07:12:53;2.10;;;0.50;;
53293;SDS011;39181;53.440;5.644;2023-03-03T07:17:55;4.63;;;0.70;;
53293;SDS011;39181;53.440;5.644;2023-03-03T07:20:37;2.33;;;0.32;;
53293;SDS011;39181;53.440;5.644;2023-03-03T07:23:16;2.55;;;0.40;;
53293;SDS011;39181;53.440;5.644;2023-03-03T07:25:48;4.00;;;0.60;;
53293;SDS011;39181;53.440;5.644;2023-03-03T07:28:24;1.67;;;0.40;;
53293;SDS011;39181;53.440;5.644;2023-03-03T07:30:51;7.47;;;0.60;;
53293;SDS011;39181;53.440;5.644;2023-03-03T07:33:22;3.17;;;0.50;;
53293;SDS011;39181;53.440;5.644;2023-03-03T07:35:53;4.80;;;0.50;;
53293;SDS011;39181;53.440;5.644;2023-03-03T07:38:30;1.50;;;0.30;;
53293;SDS011;39181;53.440;5.644;2023-03-03T07:41:02;4.82;;;0.70;;
53293;SDS011;39181;53.440;5.644;2023-03-03T07:48:45;2.92;;;0.38;;
53293;SDS011;39181;53.440;5.644;2023-03-03T07:51:12;5.82;;;0.47;;
53293;SDS011;39181;53.440;5.644;2023-03-03T07:53:46;7.18;;;0.57;;
53293;SDS011;39181;53.440;5.644;2023-03-03T07:56:28;3.03;;;0.40;;
53293;SDS011;39181;53.440;5.644;2023-03-03T07:58:58;2.67;;;0.40;;
53293;SDS011;39181;53.440;5.644;2023-03-03T08:01:36;2.33;;;0.40;;
53293;SDS011;39181;53.440;5.644;2023-03-03T08:06:57;2.28;;;0.50;;
53293;SDS011;39181;53.440;5.644;2023-03-03T08:09:28;1.85;;;0.30;;
53293;SDS011;39181;53.440;5.644;2023-03-03T08:14:55;7.50;;;0.70;;
53293;SDS011;39181;53.440;5.644;2023-03-03T08:17:35;1.40;;;0.38;;
53293;SDS011;39181;53.440;5.644;2023-03-03T08:20:09;4.57;;;0.43;;
53293;SDS011;39181;53.440;5.644;2023-03-03T08:23:09;3.72;;;0.57;;
53293;SDS011;39181;53.440;5.644;2023-03-03T08:25:35;7.53;;;0.75;;
53293;SDS011;39181;53.440;5.644;2023-03-03T08:28:01;6.68;;;0.90;;
53293;SDS011;39181;53.440;5.644;2023-03-03T08:30:26;7.55;;;0.50;;
53293;SDS011;39181;53.440;5.644;2023-03-03T08:32:52;1.98;;;0.45;;
53293;SDS011;39181;53.440;5.644;2023-03-03T08:35:17;3.70;;;0.30;;
53293;SDS011;39181;53.440;5.644;2023-03-03T08:37:43;4.63;;;0.47;;
53293;SDS011;39181;53.440;5.644;2023-03-03T08:40:09;3.75;;;0.45;;
53293;SDS011;39181;53.440;5.644;2023-03-03T08:42:35;3.35;;;0.45;;
53293;SDS011;39181;53.440;5.644;2023-03-03T08:45:00;4.28;;;0.30;;
53293;SDS011;39181;53.440;5.644;2023-03-03T08:47:26;1.50;;;0.30;;
53293;SDS011;39181;53.440;5.644;2023-03-03T08:49:51;4.22;;;0.50;;
53293;SDS011;39181;53.440;5.644;2023-03-03T08:52:18;4.00;;;0.50;;
53293;SDS011;39181;53.440;5.644;2023-03-03T08:54:45;3.75;;;0.50;;
53293;SDS011;39181;53.440;5.644;2023-03-03T08:57:11;4.25;;;0.50;;
53293;SDS011;39181;53.440;5.644;2023-03-03T08:59:36;2.35;;;0.30;;
53293;SDS011;39181;53.440;5.644;2023-03-03T09:02:03;3.13;;;0.32;;
53293;SDS011;39181;53.440;5.644;2023-03-03T09:04:30;3.00;;;0.30;;
53293;SDS011;39181;53.440;5.644;2023-03-03T09:06:55;4.35;;;0.73;;
53293;SDS011;39181;53.440;5.644;2023-03-03T09:09:21;2.47;;;0.40;;
53293;SDS011;39181;53.440;5.644;2023-03-03T09:11:47;2.72;;;0.43;;
53293;SDS011;39181;53.440;5.644;2023-03-03T09:14:14;5.15;;;0.60;;
53293;SDS011;39181;53.440;5.644;2023-03-03T09:16:52;3.60;;;0.35;;
53293;SDS011;39181;53.440;5.644;2023-03-03T09:21:50;3.25;;;0.63;;
53293;SDS011;39181;53.440;5.644;2023-03-03T09:24:26;4.65;;;0.47;;
53293;SDS011;39181;53.440;5.644;2023-03-03T09:26:54;5.28;;;0.40;;
53293;SDS011;39181;53.440;5.644;2023-03-03T09:31:51;3.40;;;0.68;;
53293;SDS011;39181;53.440;5.644;2023-03-03T09:34:37;4.78;;;0.50;;
53293;SDS011;39181;53.440;5.644;2023-03-03T09:37:15;3.97;;;0.60;;
53293;SDS011;39181;53.440;5.644;2023-03-03T09:39:42;3.85;;;0.63;;
53293;SDS011;39181;53.440;5.644;2023-03-03T09:45:01;4.75;;;0.70;;
53293;SDS011;39181;53.440;5.644;2023-03-03T09:47:53;4.57;;;0.90;;
53293;SDS011;39181;53.440;5.644;2023-03-03T09:50:41;3.75;;;0.65;;
53293;SDS011;39181;53.440;5.644;2023-03-03T09:53:37;8.13;;;0.60;;
53293;SDS011;39181;53.440;5.644;2023-03-03T09:59:43;4.38;;;0.50;;
53293;SDS011;39181;53.440;5.644;2023-03-03T10:02:45;5.78;;;0.82;;
53293;SDS011;39181;53.440;5.644;2023-03-03T10:05:44;3.08;;;0.90;;
53293;SDS011;39181;53.440;5.644;2023-03-03T10:08:36;6.78;;;1.85;;
53293;SDS011;39181;53.440;5.644;2023-03-03T10:14:45;8.65;;;1.40;;
53293;SDS011;39181;53.440;5.644;2023-03-03T10:17:36;5.82;;;0.98;;
53293;SDS011;39181;53.440;5.644;2023-03-03T10:24:10;6.22;;;0.90;;
53293;SDS011;39181;53.440;5.644;2023-03-03T10:31:32;8.10;;;1.10;;
53293;SDS011;39181;53.440;5.644;2023-03-03T10:37:03;6.75;;;1.10;;
53293;SDS011;39181;53.440;5.644;2023-03-03T10:45:14;3.90;;;0.80;;
53293;SDS011;39181;53.440;5.644;2023-03-03T10:56:43;9.27;;;0.90;;
53293;SDS011;39181;53.440;5.644;2023-03-03T11:07:48;8.43;;;1.27;;
53293;SDS011;39181;53.440;5.644;2023-03-03T11:10:22;9.23;;;1.63;;
53293;SDS011;39181;53.440;5.644;2023-03-03T11:16:14;6.60;;;1.23;;
53293;SDS011;39181;53.440;5.644;2023-03-03T11:26:53;7.40;;;1.50;;
53293;SDS011;39181;53.440;5.644;2023-03-03T11:29:48;9.27;;;1.50;;
53293;SDS011;39181;53.440;5.644;2023-03-03T11:35:25;20.65;;;2.15;;
53293;SDS011;39181;53.440;5.644;2023-03-03T11:41:02;12.77;;;2.30;;
53293;SDS011;39181;53.440;5.644;2023-03-03T11:43:37;15.65;;;2.15;;
53293;SDS011;39181;53.440;5.644;2023-03-03T11:46:19;12.07;;;1.75;;
53293;SDS011;39181;53.440;5.644;2023-03-03T11:57:12;19.73;;;3.75;;
53293;SDS011;39181;53.440;5.644;2023-03-03T12:05:30;12.63;;;2.25;;
53293;SDS011;39181;53.440;5.644;2023-03-03T12:08:20;15.02;;;2.60;;
53293;SDS011;39181;53.440;5.644;2023-03-03T12:11:02;17.52;;;1.98;;
53293;SDS011;39181;53.440;5.644;2023-03-03T12:13:49;15.70;;;2.30;;
53293;SDS011;39181;53.440;5.644;2023-03-03T12:16:37;16.63;;;2.17;;
53293;SDS011;39181;53.440;5.644;2023-03-03T12:19:30;15.68;;;1.60;;
53293;SDS011;39181;53.440;5.644;2023-03-03T12:33:07;18.92;;;2.33;;
53293;SDS011;39181;53.440;5.644;2023-03-03T12:35:54;21.83;;;2.65;;
53293;SDS011;39181;53.440;5.644;2023-03-03T12:41:26;14.35;;;2.40;;
53293;SDS011;39181;53.440;5.644;2023-03-03T12:47:00;20.45;;;2.30;;
53293;SDS011;39181;53.440;5.644;2023-03-03T12:49:44;18.42;;;2.35;;
53293;SDS011;39181;53.440;5.644;2023-03-03T12:52:29;23.27;;;2.75;;
53293;SDS011;39181;53.440;5.644;2023-03-03T12:55:18;23.17;;;2.47;;
53293;SDS011;39181;53.440;5.644;2023-03-03T12:58:37;18.02;;;2.28;;
53293;SDS011;39181;53.440;5.644;2023-03-03T13:03:54;16.23;;;1.92;;
53293;SDS011;39181;53.440;5.644;2023-03-03T13:06:42;19.15;;;2.30;;
53293;SDS011;39181;53.440;5.644;2023-03-03T13:09:27;18.52;;;2.20;;
53293;SDS011;39181;53.440;5.644;2023-03-03T13:14:38;17.02;;;2.47;;
53293;SDS011;39181;53.440;5.644;2023-03-03T13:17:26;18.25;;;2.70;;
53293;SDS011;39181;53.440;5.644;2023-03-03T13:20:04;18.55;;;2.75;;
53293;SDS011;39181;53.440;5.644;2023-03-03T13:22:46;24.25;;;2.72;;
53293;SDS011;39181;53.440;5.644;2023-03-03T13:25:21;13.45;;;2.05;;
53293;SDS011;39181;53.440;5.644;2023-03-03T13:28:10;12.90;;;1.90;;
53293;SDS011;39181;53.440;5.644;2023-03-03T13:30:46;19.48;;;2.72;;
53293;SDS011;39181;53.440;5.644;2023-03-03T13:33:16;18.17;;;3.25;;
53293;SDS011;39181;53.440;5.644;2023-03-03T13:36:02;23.27;;;2.50;;
53293;SDS011;39181;53.440;5.644;2023-03-03T13:38:39;19.00;;;2.78;;
53293;SDS011;39181;53.440;5.644;2023-03-03T13:43:48;26.88;;;3.03;;
53293;SDS011;39181;53.440;5.644;2023-03-03T13:46:27;19.60;;;3.13;;
53293;SDS011;39181;53.440;5.644;2023-03-03T13:49:10;21.00;;;2.90;;
53293;SDS011;39181;53.440;5.644;2023-03-03T13:57:24;19.10;;;3.80;;
53293;SDS011;39181;53.440;5.644;2023-03-03T14:00:22;25.08;;;2.88;;
53293;SDS011;39181;53.440;5.644;2023-03-03T14:05:36;27.17;;;3.47;;
53293;SDS011;39181;53.440;5.644;2023-03-03T14:10:41;22.23;;;3.58;;
53293;SDS011;39181;53.440;5.644;2023-03-03T14:13:19;24.48;;;3.58;;
53293;SDS011;39181;53.440;5.644;2023-03-03T14:16:08;20.20;;;3.60;;
53293;SDS011;39181;53.440;5.644;2023-03-03T14:21:31;20.52;;;2.90;;
53293;SDS011;39181;53.440;5.644;2023-03-03T14:24:05;14.35;;;2.75;;
53293;SDS011;39181;53.440;5.644;2023-03-03T14:26:44;31.63;;;2.83;;
53293;SDS011;39181;53.440;5.644;2023-03-03T14:29:21;26.58;;;3.25;;
53293;SDS011;39181;53.440;5.644;2023-03-03T14:31:49;16.85;;;3.00;;
53293;SDS011;39181;53.440;5.644;2023-03-03T14:36:47;22.60;;;2.72;;
53293;SDS011;39181;53.440;5.644;2023-03-03T14:41:58;24.77;;;3.00;;
53293;SDS011;39181;53.440;5.644;2023-03-03T14:44:28;18.33;;;4.25;;
53293;SDS011;39181;53.440;5.644;2023-03-03T14:47:01;22.30;;;3.42;;
53293;SDS011;39181;53.440;5.644;2023-03-03T14:49:33;28.10;;;3.25;;
53293;SDS011;39181;53.440;5.644;2023-03-03T14:52:43;23.58;;;3.28;;
53293;SDS011;39181;53.440;5.644;2023-03-03T14:54:59;21.88;;;2.92;;
53293;SDS011;39181;53.440;5.644;2023-03-03T15:05:24;22.58;;;3.08;;
53293;SDS011;39181;53.440;5.644;2023-03-03T15:07:55;19.52;;;3.70;;
53293;SDS011;39181;53.440;5.644;2023-03-03T15:12:57;26.00;;;4.05;;
53293;SDS011;39181;53.440;5.644;2023-03-03T15:15:23;16.45;;;3.15;;
53293;SDS011;39181;53.440;5.644;2023-03-03T15:20:21;24.40;;;2.50;;
53293;SDS011;39181;53.440;5.644;2023-03-03T15:23:17;27.55;;;3.17;;
53293;SDS011;39181;53.440;5.644;2023-03-03T15:28:26;19.40;;;2.70;;
53293;SDS011;39181;53.440;5.644;2023-03-03T15:31:02;23.20;;;3.55;;
53293;SDS011;39181;53.440;5.644;2023-03-03T15:36:34;18.60;;;2.92;;
53293;SDS011;39181;53.440;5.644;2023-03-03T15:42:04;20.27;;;2.17;;
53293;SDS011;39181;53.440;5.644;2023-03-03T15:59:23;16.88;;;4.22;;
53293;SDS011;39181;53.440;5.644;2023-03-03T16:10:16;32.45;;;3.95;;
53293;SDS011;39181;53.440;5.644;2023-03-03T16:13:07;23.55;;;3.15;;
53293;SDS011;39181;53.440;5.644;2023-03-03T16:18:30;18.60;;;3.17;;
53293;SDS011;39181;53.440;5.644;2023-03-03T16:23:55;21.40;;;3.08;;
53293;SDS011;39181;53.440;5.644;2023-03-03T16:26:37;23.67;;;2.85;;
53293;SDS011;39181;53.440;5.644;2023-03-03T16:29:09;26.20;;;3.38;;
53293;SDS011;39181;53.440;5.644;2023-03-03T16:31:42;20.23;;;2.60;;
53293;SDS011;39181;53.440;5.644;2023-03-03T16:37:29;19.15;;;3.05;;
53293;SDS011;39181;53.440;5.644;2023-03-03T16:40:13;21.63;;;3.40;;
53293;SDS011;39181;53.440;5.644;2023-03-03T16:42:56;28.15;;;3.28;;
53293;SDS011;39181;53.440;5.644;2023-03-03T16:45:34;24.15;;;3.75;;
53293;SDS011;39181;53.440;5.644;2023-03-03T16:56:22;21.15;;;3.15;;
53293;SDS011;39181;53.440;5.644;2023-03-03T16:59:02;19.88;;;2.50;;
53293;SDS011;39181;53.440;5.644;2023-03-03T17:05:00;35.35;;;4.00;;
53293;SDS011;39181;53.440;5.644;2023-03-03T17:08:14;20.45;;;3.70;;
53293;SDS011;39181;53.440;5.644;2023-03-03T17:11:14;22.45;;;2.80;;
53293;SDS011;39181;53.440;5.644;2023-03-03T17:13:59;24.40;;;2.72;;
53293;SDS011;39181;53.440;5.644;2023-03-03T17:16:57;24.58;;;3.80;;
53293;SDS011;39181;53.440;5.644;2023-03-03T17:29:53;25.33;;;4.80;;
53293;SDS011;39181;53.440;5.644;2023-03-03T17:32:46;23.35;;;5.07;;
53293;SDS011;39181;53.440;5.644;2023-03-03T17:45:58;46.75;;;29.35;;
53293;SDS011;39181;53.440;5.644;2023-03-03T18:01:50;18.17;;;3.60;;
53293;SDS011;39181;53.440;5.644;2023-03-03T18:10:17;14.00;;;2.40;;
53293;SDS011;39181;53.440;5.644;2023-03-03T18:25:53;24.13;;;2.97;;
53293;SDS011;39181;53.440;5.644;2023-03-03T18:28:45;24.00;;;3.27;;
53293;SDS011;39181;53.440;5.644;2023-03-03T18:31:24;21.30;;;2.90;;
53293;SDS011;39181;53.440;5.644;2023-03-03T18:34:07;22.55;;;2.58;;
53293;SDS011;39181;53.440;5.644;2023-03-03T18:36:52;19.13;;;1.67;;
53293;SDS011;39181;53.440;5.644;2023-03-03T18:39:42;16.67;;;3.22;;
53293;SDS011;39181;53.440;5.644;2023-03-03T18:42:36;22.67;;;3.03;;
53293;SDS011;39181;53.440;5.644;2023-03-03T18:55:45;17.35;;;1.88;;
53293;SDS011;39181;53.440;5.644;2023-03-03T19:00:43;27.10;;;3.78;;
53293;SDS011;39181;53.440;5.644;2023-03-03T19:03:24;23.80;;;2.85;;
53293;SDS011;39181;53.440;5.644;2023-03-03T19:06:28;23.48;;;3.15;;
53293;SDS011;39181;53.440;5.644;2023-03-03T19:11:59;19.65;;;2.67;;
53293;SDS011;39181;53.440;5.644;2023-03-03T19:16:53;14.88;;;3.38;;
53293;SDS011;39181;53.440;5.644;2023-03-03T19:19:21;18.25;;;3.30;;
53293;SDS011;39181;53.440;5.644;2023-03-03T19:21:50;25.15;;;2.95;;
53293;SDS011;39181;53.440;5.644;2023-03-03T19:24:35;23.67;;;2.35;;
53293;SDS011;39181;53.440;5.644;2023-03-03T19:29:59;24.58;;;2.65;;
53293;SDS011;39181;53.440;5.644;2023-03-03T19:33:19;11.43;;;2.45;;
53293;SDS011;39181;53.440;5.644;2023-03-03T19:35:41;19.65;;;2.10;;
53293;SDS011;39181;53.440;5.644;2023-03-03T19:38:51;20.38;;;2.15;;
53293;SDS011;39181;53.440;5.644;2023-03-03T19:47:02;17.25;;;2.10;;
53293;SDS011;39181;53.440;5.644;2023-03-03T19:49:44;15.02;;;2.55;;
53293;SDS011;39181;53.440;5.644;2023-03-03T19:55:14;19.02;;;2.75;;
53293;SDS011;39181;53.440;5.644;2023-03-03T19:58:09;22.17;;;2.92;;
53293;SDS011;39181;53.440;5.644;2023-03-03T20:00:51;17.15;;;1.95;;
53293;SDS011;39181;53.440;5.644;2023-03-03T20:09:18;17.73;;;2.00;;
53293;SDS011;39181;53.440;5.644;2023-03-03T20:14:40;22.75;;;2.38;;
53293;SDS011;39181;53.440;5.644;2023-03-03T20:37:08;27.88;;;11.10;;
53293;SDS011;39181;53.440;5.644;2023-03-03T20:47:46;32.92;;;15.68;;
53293;SDS011;39181;53.440;5.644;2023-03-03T20:50:30;14.70;;;2.97;;
53293;SDS011;39181;53.440;5.644;2023-03-03T20:58:23;26.05;;;3.83;;
53293;SDS011;39181;53.440;5.644;2023-03-03T21:01:11;24.50;;;2.92;;